Time;durP1;ratioP1;P1;durP2;ratioP2;P2;SDS_P1;SDS_P2;PMS_P1;PMS_P2;Temp;Humidity;BMP_temperature;BMP_pressure;BME280_temperature;BME280_humidity;BME280_pressure;Samples;Min_cycle;Max_cycle;Signal;HPM_P1;HPM_P2
2023/01/19 00:00:55;;;;;;;6.95;2.40;;;17.60;99.90;;;;;;5044599;28;20051;-70
2023/01/19 00:03:22;;;;;;;6.10;2.08;;;17.60;99.90;;;;;;5045488;28;20071;-69
2023/01/19 00:05:50;;;;;;;11.00;3.03;;;17.60;99.90;;;;;;5046192;28;20025;-69
2023/01/19 00:08:17;;;;;;;11.10;1.98;;;17.60;99.90;;;;;;5046674;28;20033;-69
2023/01/19 00:10:50;;;;;;;13.98;2.20;;;17.60;99.90;;;;;;5047707;28;20032;-70
2023/01/19 00:13:17;;;;;;;11.10;2.47;;;17.60;99.90;;;;;;5047082;28;20024;-70
2023/01/19 00:15:45;;;;;;;9.45;2.42;;;17.60;99.90;;;;;;5046390;28;20120;-69
2023/01/19 00:18:12;;;;;;;11.55;2.88;;;17.50;99.90;;;;;;5053380;28;20029;-68
2023/01/19 00:20:40;;;;;;;10.43;2.40;;;17.50;99.90;;;;;;5046292;28;20033;-70
2023/01/19 00:23:08;;;;;;;8.80;2.47;;;17.50;99.90;;;;;;5051831;28;20397;-71
2023/01/19 00:25:41;;;;;;;17.83;3.47;;;17.50;99.90;;;;;;5046652;28;20071;-73
2023/01/19 00:28:13;;;;;;;15.50;2.55;;;17.50;99.90;;;;;;5047916;28;20066;-69
2023/01/19 00:30:41;;;;;;;13.30;2.78;;;17.40;99.90;;;;;;5037079;28;20489;-69
2023/01/19 00:33:09;;;;;;;18.80;2.92;;;17.50;99.90;;;;;;5050071;28;20067;-68
2023/01/19 00:35:37;;;;;;;12.93;2.92;;;17.50;99.90;;;;;;5050276;28;20025;-69
2023/01/19 00:38:04;;;;;;;18.63;3.25;;;17.50;99.90;;;;;;5049988;28;20021;-68
2023/01/19 00:40:31;;;;;;;18.30;3.88;;;17.50;99.90;;;;;;5049721;28;20025;-69
2023/01/19 00:42:59;;;;;;;13.30;3.08;;;17.50;99.90;;;;;;5045269;28;20565;-68
2023/01/19 00:45:26;;;;;;;14.10;3.22;;;17.50;99.90;;;;;;5048848;28;20040;-69
2023/01/19 00:47:55;;;;;;;16.73;3.53;;;17.60;99.90;;;;;;5046891;28;20743;-69
2023/01/19 00:50:25;;;;;;;20.65;3.42;;;17.60;99.90;;;;;;5043732;28;20041;-69
2023/01/19 00:52:55;;;;;;;17.80;3.92;;;17.60;99.90;;;;;;5040314;28;20473;-69
2023/01/19 00:55:23;;;;;;;22.83;2.55;;;17.70;99.90;;;;;;5040519;28;20104;-69
2023/01/19 00:57:50;;;;;;;12.40;3.05;;;17.60;99.90;;;;;;5044738;28;20083;-69
2023/01/19 01:00:20;;;;;;;13.55;2.50;;;17.60;99.90;;;;;;5045573;28;20017;-69
2023/01/19 01:02:49;;;;;;;11.90;2.88;;;17.60;99.90;;;;;;5041839;28;20112;-69
2023/01/19 01:05:18;;;;;;;16.55;3.58;;;17.50;99.90;;;;;;5039251;28;20065;-69
2023/01/19 01:07:48;;;;;;;15.88;3.47;;;17.50;99.90;;;;;;5043660;28;20033;-70
2023/01/19 01:10:21;;;;;;;20.20;3.33;;;17.50;99.90;;;;;;5046517;28;20060;-69
2023/01/19 01:12:49;;;;;;;15.48;2.90;;;17.50;99.90;;;;;;5042335;28;20017;-69
2023/01/19 01:15:18;;;;;;;17.63;3.05;;;17.50;99.90;;;;;;5042135;28;20041;-69
2023/01/19 01:17:51;;;;;;;22.48;4.22;;;17.40;99.90;;;;;;5047395;28;20029;-69
2023/01/19 01:20:21;;;;;;;19.90;2.90;;;17.40;99.90;;;;;;5044253;28;20135;-69
2023/01/19 01:22:51;;;;;;;11.93;2.78;;;17.40;99.90;;;;;;5038707;28;20025;-68
2023/01/19 01:25:21;;;;;;;22.33;4.07;;;17.30;99.90;;;;;;5046704;28;20032;-68
2023/01/19 01:27:49;;;;;;;19.30;2.95;;;17.20;99.90;;;;;;5036598;28;20033;-68
2023/01/19 01:30:17;;;;;;;20.45;3.38;;;17.20;99.90;;;;;;5042008;28;20052;-68
2023/01/19 01:32:44;;;;;;;22.77;2.90;;;17.30;99.90;;;;;;5045281;28;20033;-68
2023/01/19 01:35:12;;;;;;;23.77;4.95;;;17.40;99.90;;;;;;5039357;28;20026;-69
2023/01/19 01:37:41;;;;;;;12.20;2.65;;;17.50;99.90;;;;;;5042362;28;20025;-68
2023/01/19 01:40:11;;;;;;;20.35;4.38;;;17.70;99.90;;;;;;5049533;28;20025;-68
2023/01/19 01:42:39;;;;;;;24.20;3.92;;;17.80;99.90;;;;;;5045979;28;20099;-71
2023/01/19 01:45:37;;;;;;;20.95;4.47;;;18.00;99.90;;;;;;5040405;28;20033;-71
2023/01/19 01:48:10;;;;;;;19.48;3.05;;;18.10;99.90;;;;;;5035494;28;20075;-69
2023/01/19 01:53:37;;;;;;;11.32;2.97;;;17.80;99.90;;;;;;5044640;28;20118;-70
2023/01/19 01:56:11;;;;;;;17.83;3.08;;;17.80;99.90;;;;;;5040508;28;20029;-69
2023/01/19 01:58:39;;;;;;;21.38;3.38;;;17.80;99.90;;;;;;5049261;28;20446;-71
2023/01/19 02:03:54;;;;;;;12.50;2.28;;;17.80;99.90;;;;;;5042451;28;20055;-71
2023/01/19 02:06:21;;;;;;;14.65;2.10;;;17.70;99.90;;;;;;5047528;28;20416;-69
2023/01/19 02:14:36;;;;;;;16.58;2.30;;;17.70;99.90;;;;;;5045964;28;20029;-71
2023/01/19 02:17:05;;;;;;;17.33;3.58;;;17.60;99.90;;;;;;5046015;28;20025;-71
2023/01/19 02:19:42;;;;;;;13.23;2.13;;;17.70;99.90;;;;;;5048696;28;20056;-69
2023/01/19 02:22:34;;;;;;;15.73;2.80;;;17.90;99.90;;;;;;5045242;28;20033;-72
2023/01/19 02:25:04;;;;;;;17.95;3.85;;;18.20;99.90;;;;;;5046088;28;20021;-70
2023/01/19 02:27:32;;;;;;;14.13;2.22;;;18.50;99.90;;;;;;5046143;28;20083;-72
2023/01/19 02:30:02;;;;;;;20.40;3.17;;;18.70;99.90;;;;;;5045907;28;20159;-69
2023/01/19 02:32:30;;;;;;;17.55;3.42;;;18.90;99.90;;;;;;5045053;28;20021;-69
2023/01/19 02:34:57;;;;;;;12.90;2.60;;;18.90;99.90;;;;;;5033529;28;20040;-69
2023/01/19 02:37:28;;;;;;;12.25;2.08;;;18.80;99.90;;;;;;5047473;28;20542;-70
2023/01/19 02:40:00;;;;;;;8.43;2.65;;;18.80;99.90;;;;;;5044996;28;20540;-69
2023/01/19 02:42:55;;;;;;;18.60;4.93;;;18.80;99.90;;;;;;5048117;28;20025;-70
2023/01/19 02:45:23;;;;;;;13.32;3.50;;;19.00;99.90;;;;;;5038890;28;20032;-70
2023/01/19 02:47:52;;;;;;;14.20;3.38;;;18.90;99.90;;;;;;5046350;28;20036;-70
2023/01/19 02:50:37;;;;;;;17.45;2.33;;;19.10;99.90;;;;;;5044680;28;20033;-70
2023/01/19 02:53:22;;;;;;;12.02;2.25;;;19.20;99.90;;;;;;5040775;28;20056;-70
2023/01/19 02:56:35;;;;;;;15.13;3.50;;;19.10;99.90;;;;;;5040656;28;20067;-71
2023/01/19 02:59:22;;;;;;;15.90;2.33;;;18.90;99.90;;;;;;5009445;28;20393;-70
2023/01/19 03:02:14;;;;;;;12.48;2.10;;;18.90;99.90;;;;;;5045766;28;20021;-70
2023/01/19 03:05:01;;;;;;;13.23;3.65;;;18.70;99.90;;;;;;5046150;28;20017;-70
2023/01/19 03:07:29;;;;;;;14.65;2.63;;;18.60;99.90;;;;;;5048804;28;20516;-70
2023/01/19 03:10:28;;;;;;;8.98;1.92;;;18.90;99.90;;;;;;5043996;28;20037;-69
2023/01/19 03:12:58;;;;;;;13.20;1.85;;;19.00;99.90;;;;;;5046196;28;20033;-69
2023/01/19 03:15:38;;;;;;;11.57;1.73;;;18.90;99.90;;;;;;5052813;28;20103;-69
2023/01/19 03:18:09;;;;;;;12.57;2.90;;;18.90;99.90;;;;;;5049216;28;20029;-69
2023/01/19 03:20:39;;;;;;;10.45;2.13;;;19.00;99.90;;;;;;5050932;28;20087;-70
2023/01/19 03:23:10;;;;;;;11.88;3.42;;;19.10;99.90;;;;;;5046893;28;20025;-69
2023/01/19 03:25:41;;;;;;;9.52;2.88;;;19.10;99.90;;;;;;5042713;28;20025;-70
2023/01/19 03:28:09;;;;;;;13.02;2.35;;;19.10;99.90;;;;;;5052280;28;20021;-71
2023/01/19 03:30:47;;;;;;;13.95;2.38;;;19.00;99.90;;;;;;5046792;28;20393;-71
2023/01/19 03:33:27;;;;;;;16.83;2.35;;;19.00;99.90;;;;;;5038796;28;20032;-72
2023/01/19 03:36:02;;;;;;;12.23;1.88;;;19.00;99.90;;;;;;5050128;28;20036;-70
2023/01/19 03:38:34;;;;;;;12.93;2.72;;;19.00;99.90;;;;;;5048845;28;20021;-70
2023/01/19 03:41:06;;;;;;;9.88;2.10;;;19.10;99.90;;;;;;5048240;28;20029;-71
2023/01/19 03:43:35;;;;;;;16.83;2.35;;;19.00;99.90;;;;;;5048002;28;20021;-70
2023/01/19 03:46:04;;;;;;;11.40;2.00;;;18.90;99.90;;;;;;5050020;28;20025;-71
2023/01/19 03:48:33;;;;;;;9.80;2.47;;;18.90;99.90;;;;;;5047592;28;20025;-70
2023/01/19 03:51:06;;;;;;;11.45;2.00;;;19.00;99.90;;;;;;5050413;28;20298;-70
2023/01/19 03:53:33;;;;;;;10.18;2.30;;;19.00;99.90;;;;;;5046571;28;20017;-71
2023/01/19 03:56:00;;;;;;;13.10;2.05;;;19.10;99.90;;;;;;5048060;28;20178;-70
2023/01/19 03:58:28;;;;;;;17.05;1.90;;;19.20;99.90;;;;;;5048871;28;20033;-70
2023/01/19 04:00:55;;;;;;;11.70;2.63;;;19.30;99.90;;;;;;5049128;28;20017;-71
2023/01/19 04:03:23;;;;;;;11.73;2.33;;;19.20;99.90;;;;;;5042759;28;20061;-71
2023/01/19 04:05:50;;;;;;;12.43;3.10;;;19.20;99.90;;;;;;5041727;28;20052;-71
2023/01/19 04:08:18;;;;;;;19.52;2.97;;;19.20;99.90;;;;;;5049806;28;20071;-71
2023/01/19 04:10:45;;;;;;;12.48;2.42;;;19.20;99.90;;;;;;5049190;28;20064;-73
2023/01/19 04:13:12;;;;;;;11.20;2.10;;;19.30;99.90;;;;;;5043885;28;20017;-71
2023/01/19 04:15:40;;;;;;;15.85;1.98;;;19.40;99.90;;;;;;5044658;28;20029;-70
2023/01/19 04:18:07;;;;;;;9.38;2.58;;;19.40;99.90;;;;;;5051566;28;20067;-71
2023/01/19 04:20:35;;;;;;;8.23;2.53;;;19.40;99.90;;;;;;5051414;28;20478;-70
2023/01/19 04:23:02;;;;;;;8.73;2.22;;;19.40;99.90;;;;;;5050697;28;20044;-70
2023/01/19 04:25:29;;;;;;;9.20;2.67;;;19.40;99.90;;;;;;5042170;28;20049;-70
2023/01/19 04:27:57;;;;;;;9.73;2.08;;;19.40;99.90;;;;;;5042924;28;20478;-70
2023/01/19 04:30:25;;;;;;;10.23;1.83;;;19.40;99.90;;;;;;5044220;28;20081;-71
2023/01/19 04:32:54;;;;;;;11.25;2.20;;;19.50;99.90;;;;;;5044636;28;20029;-71
2023/01/19 04:35:22;;;;;;;10.02;1.70;;;19.40;99.90;;;;;;5038767;28;20446;-71
2023/01/19 04:37:49;;;;;;;11.90;1.90;;;19.40;99.90;;;;;;5046496;28;20017;-72
2023/01/19 04:40:17;;;;;;;8.63;1.85;;;19.30;99.90;;;;;;5050061;28;20033;-71
2023/01/19 04:42:49;;;;;;;6.43;2.10;;;19.20;99.90;;;;;;5050554;28;20017;-71
2023/01/19 04:45:17;;;;;;;10.52;1.38;;;19.20;99.90;;;;;;5050495;28;20039;-73
2023/01/19 04:47:44;;;;;;;14.25;1.77;;;19.20;99.90;;;;;;5049253;28;20035;-69
2023/01/19 04:50:12;;;;;;;9.98;2.22;;;19.20;99.90;;;;;;5048919;28;20080;-69
2023/01/19 04:52:39;;;;;;;7.20;1.50;;;19.20;99.90;;;;;;5046182;28;20124;-69
2023/01/19 04:55:07;;;;;;;12.20;2.17;;;19.30;99.80;;;;;;5049602;28;20120;-69
2023/01/19 04:57:34;;;;;;;10.95;1.83;;;19.20;99.90;;;;;;5046125;28;20138;-68
2023/01/19 05:00:02;;;;;;;9.80;1.63;;;19.20;99.90;;;;;;5049921;28;20028;-69
2023/01/19 05:02:29;;;;;;;9.57;2.15;;;19.20;99.90;;;;;;5050300;28;20032;-69
2023/01/19 05:04:56;;;;;;;8.20;2.75;;;19.30;99.90;;;;;;5049877;28;20033;-68
2023/01/19 05:07:24;;;;;;;5.65;1.83;;;19.40;99.90;;;;;;5041915;28;20113;-69
2023/01/19 05:09:51;;;;;;;10.73;1.80;;;19.50;99.90;;;;;;5045570;28;20029;-69
2023/01/19 05:12:18;;;;;;;12.45;2.03;;;19.50;99.90;;;;;;5048437;28;20405;-70
2023/01/19 05:14:46;;;;;;;6.57;1.70;;;19.50;99.60;;;;;;5044306;28;20030;-69
2023/01/19 05:17:13;;;;;;;10.18;2.38;;;19.50;99.90;;;;;;5045574;28;20033;-68
2023/01/19 05:19:41;;;;;;;5.82;2.00;;;19.60;99.90;;;;;;5046430;28;20025;-66
2023/01/19 05:22:08;;;;;;;10.05;2.05;;;19.70;99.90;;;;;;5049565;28;20032;-68
2023/01/19 05:24:35;;;;;;;9.38;1.42;;;19.60;98.90;;;;;;5049073;28;20109;-69
2023/01/19 05:27:03;;;;;;;6.55;1.20;;;19.50;99.40;;;;;;5047844;28;20044;-68
2023/01/19 05:29:30;;;;;;;11.68;1.67;;;19.50;98.90;;;;;;5047863;28;20059;-68
2023/01/19 05:31:58;;;;;;;11.90;2.28;;;19.40;99.90;;;;;;5047969;28;20017;-68
2023/01/19 05:34:25;;;;;;;10.05;2.50;;;19.30;99.70;;;;;;5048119;28;20017;-68
2023/01/19 05:36:52;;;;;;;5.75;1.83;;;19.30;99.90;;;;;;5045020;28;20055;-69
2023/01/19 05:39:20;;;;;;;8.15;1.63;;;19.30;99.90;;;;;;5047189;28;20104;-68
2023/01/19 05:41:47;;;;;;;7.90;1.65;;;19.30;99.90;;;;;;5047629;28;20029;-68
2023/01/19 05:44:14;;;;;;;7.88;1.80;;;19.30;99.90;;;;;;5048149;28;20021;-69
2023/01/19 05:46:42;;;;;;;4.32;1.80;;;19.40;99.90;;;;;;5044931;28;20442;-68
2023/01/19 05:49:11;;;;;;;8.05;1.80;;;19.30;99.90;;;;;;5049453;28;20112;-68
2023/01/19 05:51:39;;;;;;;5.95;1.17;;;19.30;99.90;;;;;;5049317;28;20029;-68
2023/01/19 05:54:08;;;;;;;9.48;1.35;;;19.30;99.90;;;;;;5046661;28;20029;-68
2023/01/19 05:56:38;;;;;;;9.35;2.15;;;19.30;99.90;;;;;;5048193;28;20802;-68
2023/01/19 05:59:05;;;;;;;6.55;1.40;;;19.20;99.90;;;;;;5049403;28;20032;-68
2023/01/19 06:01:37;;;;;;;9.00;1.75;;;19.10;99.90;;;;;;5047181;28;20029;-68
2023/01/19 06:04:05;;;;;;;8.70;1.90;;;19.10;99.90;;;;;;5046028;28;20104;-68
2023/01/19 06:06:32;;;;;;;10.80;2.20;;;19.10;99.90;;;;;;5047316;28;20044;-68
2023/01/19 06:08:59;;;;;;;6.75;2.03;;;19.10;99.90;;;;;;5047824;28;20025;-68
2023/01/19 06:11:27;;;;;;;11.82;1.75;;;19.20;99.90;;;;;;5043676;28;20375;-68
2023/01/19 06:13:54;;;;;;;7.00;1.67;;;19.20;99.90;;;;;;5047231;28;20464;-67
2023/01/19 06:16:22;;;;;;;17.67;2.15;;;19.30;99.90;;;;;;5062478;28;20030;-68
2023/01/19 06:18:49;;;;;;;7.65;1.80;;;19.30;99.90;;;;;;5048530;28;20025;-68
2023/01/19 06:21:16;;;;;;;7.43;2.45;;;19.20;99.90;;;;;;5046918;28;20037;-68
2023/01/19 06:23:44;;;;;;;8.90;1.35;;;19.20;99.90;;;;;;5048491;28;20048;-68
2023/01/19 06:26:12;;;;;;;13.20;1.90;;;19.10;99.90;;;;;;5048022;28;20071;-67
2023/01/19 06:28:39;;;;;;;9.95;1.45;;;19.10;99.90;;;;;;5044877;28;20025;-67
2023/01/19 06:31:07;;;;;;;11.07;1.77;;;19.10;99.90;;;;;;5044381;28;20385;-68
2023/01/19 06:33:34;;;;;;;5.25;1.40;;;19.10;99.90;;;;;;5048841;28;20017;-68
2023/01/19 06:36:02;;;;;;;13.65;2.08;;;19.10;99.90;;;;;;5050790;28;20021;-68
2023/01/19 06:38:29;;;;;;;14.45;1.83;;;19.10;99.90;;;;;;5050645;28;20024;-67
2023/01/19 06:40:58;;;;;;;8.63;2.33;;;19.10;99.90;;;;;;5037193;28;20020;-68
2023/01/19 06:43:26;;;;;;;7.20;1.48;;;19.10;99.90;;;;;;5043689;28;20033;-68
2023/01/19 06:45:53;;;;;;;11.85;1.42;;;19.10;99.90;;;;;;5046089;28;20021;-68
2023/01/19 06:48:21;;;;;;;7.40;2.13;;;19.10;99.90;;;;;;5043890;28;20025;-68
2023/01/19 06:50:49;;;;;;;5.35;1.40;;;19.10;99.90;;;;;;5046036;28;20033;-69
2023/01/19 06:53:19;;;;;;;6.75;1.50;;;19.10;99.90;;;;;;5049108;28;20025;-68
2023/01/19 06:55:47;;;;;;;7.65;1.85;;;19.20;99.90;;;;;;5046277;28;20574;-68
2023/01/19 06:58:14;;;;;;;7.57;1.90;;;19.20;99.90;;;;;;5051230;28;20108;-68
2023/01/19 07:00:41;;;;;;;9.50;1.63;;;19.20;99.90;;;;;;5050056;28;20082;-69
2023/01/19 07:03:16;;;;;;;5.05;1.25;;;19.30;99.90;;;;;;5047466;28;20158;-68
2023/01/19 07:05:43;;;;;;;7.68;1.83;;;19.20;99.90;;;;;;5050786;28;20080;-68
2023/01/19 07:08:10;;;;;;;6.80;1.52;;;19.20;99.90;;;;;;5045749;28;20033;-67
2023/01/19 07:10:38;;;;;;;9.70;1.80;;;19.20;99.90;;;;;;5044541;28;20029;-68
2023/01/19 07:13:05;;;;;;;7.57;1.30;;;19.20;99.90;;;;;;5051392;28;20070;-68
2023/01/19 07:15:32;;;;;;;8.15;2.20;;;19.20;99.90;;;;;;5047147;28;20025;-68
2023/01/19 07:18:04;;;;;;;13.20;1.88;;;19.20;99.90;;;;;;5051306;28;20638;-68
2023/01/19 07:20:32;;;;;;;9.10;1.58;;;19.20;99.90;;;;;;5049583;28;20366;-68
2023/01/19 07:22:59;;;;;;;3.85;1.27;;;19.30;99.90;;;;;;5050629;28;20024;-68
2023/01/19 07:25:26;;;;;;;8.38;1.55;;;19.30;99.90;;;;;;5048914;28;20119;-68
2023/01/19 07:27:58;;;;;;;9.60;1.50;;;19.40;99.90;;;;;;5041940;28;20053;-71
2023/01/19 07:30:26;;;;;;;7.32;1.55;;;19.40;99.90;;;;;;5041203;28;20049;-70
2023/01/19 07:32:57;;;;;;;10.05;1.90;;;19.50;99.90;;;;;;5061060;28;20029;-70
2023/01/19 07:35:25;;;;;;;5.93;1.25;;;19.50;99.90;;;;;;5045978;28;20028;-70
2023/01/19 07:37:53;;;;;;;7.78;1.30;;;19.50;99.90;;;;;;5042343;28;20020;-69
2023/01/19 07:40:20;;;;;;;7.47;1.98;;;19.40;99.90;;;;;;5046085;28;20021;-71
2023/01/19 07:42:49;;;;;;;8.40;1.70;;;19.50;99.90;;;;;;5047882;28;20056;-70
2023/01/19 07:45:18;;;;;;;13.43;2.03;;;19.40;99.90;;;;;;5048166;28;20115;-71
2023/01/19 07:47:47;;;;;;;11.63;2.03;;;19.40;99.90;;;;;;5048229;28;20398;-70
2023/01/19 07:50:16;;;;;;;12.38;1.92;;;19.50;99.90;;;;;;5046805;28;20098;-70
2023/01/19 07:52:44;;;;;;;15.65;1.90;;;19.40;99.90;;;;;;5042757;28;20051;-71
2023/01/19 07:55:11;;;;;;;16.00;2.25;;;19.40;99.90;;;;;;5047254;28;20033;-71
2023/01/19 07:57:39;;;;;;;12.88;2.25;;;19.30;99.90;;;;;;5045421;28;20074;-70
2023/01/19 08:00:07;;;;;;;8.75;1.55;;;19.30;99.90;;;;;;5046499;28;20039;-69
2023/01/19 08:02:35;;;;;;;8.88;1.55;;;19.20;99.90;;;;;;5043257;28;20733;-71
2023/01/19 08:05:03;;;;;;;8.43;2.03;;;19.20;99.90;;;;;;5041515;28;20091;-71
2023/01/19 08:07:30;;;;;;;9.68;2.13;;;19.20;99.90;;;;;;5044999;28;20174;-70
2023/01/19 08:09:57;;;;;;;13.02;2.15;;;19.10;99.90;;;;;;5044764;28;20119;-70
2023/01/19 08:12:25;;;;;;;12.57;2.28;;;19.10;99.90;;;;;;5043666;28;20016;-70
2023/01/19 08:14:52;;;;;;;11.27;1.73;;;19.10;99.90;;;;;;5060856;28;20393;-71
2023/01/19 08:17:19;;;;;;;8.32;1.52;;;19.10;99.90;;;;;;5040671;28;20451;-71
2023/01/19 08:19:47;;;;;;;8.75;1.75;;;19.10;99.90;;;;;;5046993;28;20079;-71
2023/01/19 08:22:14;;;;;;;9.50;1.60;;;19.10;99.90;;;;;;5044115;28;20053;-71
2023/01/19 08:24:41;;;;;;;8.13;1.67;;;19.00;99.90;;;;;;5046138;28;20572;-71
2023/01/19 08:27:09;;;;;;;7.80;1.70;;;19.00;99.90;;;;;;5043889;28;20064;-70
2023/01/19 08:29:36;;;;;;;7.57;1.55;;;19.00;99.90;;;;;;5043661;28;20675;-71
2023/01/19 08:32:05;;;;;;;8.93;1.92;;;19.00;99.90;;;;;;5042858;28;20024;-70
2023/01/19 08:34:32;;;;;;;6.28;1.63;;;19.00;99.90;;;;;;5045373;28;20061;-70
2023/01/19 08:37:00;;;;;;;5.13;1.58;;;18.90;99.90;;;;;;5040454;28;20029;-70
2023/01/19 08:39:28;;;;;;;8.93;2.15;;;18.90;99.90;;;;;;5041693;28;20397;-70
2023/01/19 08:41:55;;;;;;;7.57;1.65;;;18.90;99.90;;;;;;5042524;28;20112;-70
2023/01/19 08:44:22;;;;;;;10.48;2.15;;;18.90;99.90;;;;;;5045425;28;20021;-72
2023/01/19 08:46:49;;;;;;;9.90;1.52;;;18.80;99.90;;;;;;5042930;28;20057;-65
2023/01/19 08:49:17;;;;;;;12.57;2.30;;;18.60;99.90;;;;;;5044488;28;20725;-64
2023/01/19 08:51:47;;;;;;;12.80;1.92;;;18.50;99.90;;;;;;5044448;28;20028;-65
2023/01/19 08:54:15;;;;;;;11.15;2.45;;;18.10;99.90;;;;;;5045883;28;20032;-65
2023/01/19 08:56:43;;;;;;;12.65;2.92;;;17.90;99.90;;;;;;5041809;28;20033;-64
2023/01/19 08:59:10;;;;;;;6.25;2.08;;;17.60;99.90;;;;;;5043444;28;20032;-64
2023/01/19 09:01:38;;;;;;;13.13;2.15;;;17.50;99.90;;;;;;5043395;28;20037;-64
2023/01/19 09:04:06;;;;;;;10.05;1.90;;;17.40;99.90;;;;;;5043321;28;20032;-68
2023/01/19 09:06:33;;;;;;;11.93;2.40;;;17.30;99.90;;;;;;5041873;28;20535;-67
2023/01/19 09:09:00;;;;;;;13.43;2.50;;;17.20;99.90;;;;;;5041432;28;20018;-65
2023/01/19 09:11:28;;;;;;;14.88;2.13;;;17.10;99.90;;;;;;5043936;28;20021;-65
2023/01/19 09:13:55;;;;;;;12.77;1.95;;;17.10;99.90;;;;;;5044890;28;20025;-65
2023/01/19 09:16:23;;;;;;;11.10;2.22;;;17.10;99.90;;;;;;5045256;28;20025;-65
2023/01/19 09:18:50;;;;;;;17.25;2.65;;;17.10;99.90;;;;;;5036861;28;20029;-64
2023/01/19 09:21:18;;;;;;;12.20;2.10;;;17.10;99.90;;;;;;5045728;28;20112;-65
2023/01/19 09:23:45;;;;;;;13.68;2.97;;;17.10;99.90;;;;;;5044805;28;20036;-65
2023/01/19 09:26:12;;;;;;;14.98;2.35;;;17.00;99.90;;;;;;5037445;28;20033;-65
2023/01/19 09:28:40;;;;;;;13.00;2.67;;;17.00;99.90;;;;;;5042870;28;20103;-65
2023/01/19 09:31:08;;;;;;;15.43;2.85;;;17.00;99.90;;;;;;5037062;28;20072;-65
2023/01/19 09:33:36;;;;;;;11.15;2.97;;;17.00;99.90;;;;;;5032610;28;20035;-65
2023/01/19 09:36:03;;;;;;;11.68;3.05;;;17.00;99.90;;;;;;5045281;28;20063;-65
2023/01/19 09:38:31;;;;;;;23.40;3.47;;;17.00;99.90;;;;;;5045078;28;20033;-64
2023/01/19 09:40:59;;;;;;;11.43;2.17;;;17.00;99.90;;;;;;5034789;28;20032;-65
2023/01/19 09:43:54;;;;;;;18.00;4.60;;;17.00;99.90;;;;;;5037001;28;20083;-65
2023/01/19 09:46:37;;;;;;;17.48;4.30;;;17.10;99.90;;;;;;5039410;28;20452;-64
2023/01/19 09:49:33;;;;;;;12.90;2.35;;;17.10;99.90;;;;;;5042356;28;20029;-70
2023/01/19 09:52:01;;;;;;;16.50;4.93;;;17.10;99.90;;;;;;5045155;28;20033;-70
2023/01/19 09:54:57;;;;;;;14.02;1.77;;;17.10;99.90;;;;;;5044484;28;20044;-69
2023/01/19 09:57:26;;;;;;;21.02;2.97;;;17.10;99.90;;;;;;5041075;28;20040;-70
2023/01/19 09:59:58;;;;;;;18.45;3.92;;;17.00;99.90;;;;;;5070673;28;20090;-69
2023/01/19 10:02:34;;;;;;;10.88;2.50;;;17.10;99.90;;;;;;5037787;28;20022;-69
2023/01/19 10:05:43;;;;;;;14.27;3.92;;;17.10;99.90;;;;;;5039083;28;20052;-68
2023/01/19 10:08:24;;;;;;;24.83;6.88;;;17.20;99.90;;;;;;5027755;28;20037;-71
2023/01/19 10:10:54;;;;;;;18.15;2.90;;;17.20;99.90;;;;;;5040486;28;20128;-69
2023/01/19 10:13:36;;;;;;;13.15;4.15;;;17.20;99.90;;;;;;5043001;28;20025;-69
2023/01/19 10:16:30;;;;;;;14.65;3.75;;;17.20;99.90;;;;;;5040378;28;20119;-69
2023/01/19 10:19:26;;;;;;;16.65;2.60;;;17.30;99.90;;;;;;5042120;28;20021;-69
2023/01/19 10:21:57;;;;;;;13.32;1.73;;;17.30;99.90;;;;;;5042134;28;20033;-69
2023/01/19 10:24:31;;;;;;;10.43;1.48;;;17.30;99.90;;;;;;5039315;28;20094;-70
2023/01/19 10:26:59;;;;;;;7.70;1.80;;;17.30;99.90;;;;;;5039764;28;20029;-70
2023/01/19 10:29:36;;;;;;;8.75;2.33;;;17.30;99.90;;;;;;5036762;28;20093;-68
2023/01/19 10:32:11;;;;;;;10.13;1.58;;;17.40;99.90;;;;;;5044047;28;20049;-70
2023/01/19 10:37:43;;;;;;;14.68;1.90;;;17.40;99.90;;;;;;5043015;28;20276;-68
2023/01/19 10:40:10;;;;;;;6.15;1.90;;;17.30;99.90;;;;;;5044236;28;20055;-69
2023/01/19 10:42:40;;;;;;;8.38;1.95;;;17.40;99.90;;;;;;5042980;28;20029;-70
2023/01/19 10:45:20;;;;;;;18.15;2.22;;;17.40;99.90;;;;;;5042579;28;20682;-69
2023/01/19 10:47:48;;;;;;;13.48;2.30;;;17.30;99.90;;;;;;5041630;28;20025;-69
2023/01/19 10:50:27;;;;;;;10.48;1.98;;;17.30;99.90;;;;;;5044822;28;20033;-68
2023/01/19 10:53:00;;;;;;;13.52;2.88;;;17.30;99.90;;;;;;5038550;28;20071;-69
2023/01/19 10:55:30;;;;;;;8.95;1.50;;;17.30;99.90;;;;;;5043068;28;20471;-69
2023/01/19 10:57:59;;;;;;;8.85;1.65;;;17.40;99.90;;;;;;5042554;28;20021;-68
2023/01/19 11:00:38;;;;;;;10.70;1.50;;;17.40;99.90;;;;;;5041572;28;20060;-74
2023/01/19 11:03:24;;;;;;;15.98;2.20;;;17.40;99.90;;;;;;5041659;28;20021;-72
2023/01/19 11:05:52;;;;;;;17.35;2.20;;;17.40;99.90;;;;;;5044096;28;20098;-74
2023/01/19 11:08:37;;;;;;;16.65;2.65;;;17.40;99.90;;;;;;5041229;28;20037;-72
2023/01/19 11:11:06;;;;;;;;;;;17.50;99.90;;;;;;5038764;28;20036;-74
2023/01/19 11:13:35;;;;;;;9.73;1.73;;;17.50;99.90;;;;;;5040500;28;19917;-74
2023/01/19 11:16:16;;;;;;;6.70;1.77;;;17.60;99.90;;;;;;5040798;28;20586;-74
2023/01/19 11:18:46;;;;;;;8.43;1.50;;;17.70;99.90;;;;;;5041198;28;20036;-71
2023/01/19 11:21:17;;;;;;;11.98;1.63;;;17.70;99.90;;;;;;5039687;28;20079;-72
2023/01/19 11:23:50;;;;;;;11.40;1.58;;;17.80;99.90;;;;;;5045206;28;20029;-71
2023/01/19 11:26:42;;;;;;;12.20;1.70;;;17.90;99.90;;;;;;5039936;28;20033;-70
2023/01/19 11:29:19;;;;;;;9.70;1.20;;;17.90;99.90;;;;;;5031208;28;20058;-72
2023/01/19 11:31:47;;;;;;;12.95;1.85;;;17.90;99.90;;;;;;5047627;28;20037;-70
2023/01/19 11:34:36;;;;;;;13.25;2.15;;;17.90;99.90;;;;;;5046670;28;20028;-69
2023/01/19 11:37:04;;;;;;;8.60;1.55;;;18.00;99.90;;;;;;5047325;28;20025;-72
2023/01/19 11:39:45;;;;;;;13.25;2.22;;;18.00;99.90;;;;;;5048069;28;20512;-71
2023/01/19 11:42:14;;;;;;;10.93;1.67;;;18.00;99.90;;;;;;5037090;28;20038;-70
2023/01/19 11:45:16;;;;;;;12.80;1.52;;;18.00;99.90;;;;;;5039770;28;20021;-71
2023/01/19 11:47:48;;;;;;;11.45;1.88;;;18.00;99.90;;;;;;5046528;28;20032;-70
2023/01/19 11:50:40;;;;;;;8.27;1.63;;;18.00;99.90;;;;;;5045760;28;20032;-71
2023/01/19 11:53:28;;;;;;;10.10;1.77;;;18.00;99.90;;;;;;5037053;28;20067;-71
2023/01/19 11:55:55;;;;;;;9.68;2.28;;;18.00;99.90;;;;;;5038634;28;20560;-70
2023/01/19 11:58:25;;;;;;;7.65;1.25;;;18.00;99.90;;;;;;5046512;28;20033;-71
2023/01/19 12:01:03;;;;;;;9.73;1.40;;;18.00;99.90;;;;;;5042487;28;20037;-72
2023/01/19 12:04:03;;;;;;;10.40;1.92;;;18.00;99.90;;;;;;5042915;28;20106;-72
2023/01/19 12:06:37;;;;;;;16.20;1.42;;;18.00;99.90;;;;;;5026029;28;20542;-71
2023/01/19 12:09:25;;;;;;;12.38;1.88;;;18.00;99.90;;;;;;5047443;28;20071;-69
2023/01/19 12:12:03;;;;;;;12.63;2.05;;;18.00;99.90;;;;;;5035933;28;20136;-70
2023/01/19 12:15:08;;;;;;;3.33;1.25;;;18.00;99.90;;;;;;5038467;28;20268;-71
2023/01/19 12:17:43;;;;;;;8.35;1.30;;;18.00;99.90;;;;;;5005468;28;20022;-68
2023/01/19 12:20:39;;;;;;;7.65;1.77;;;18.00;99.90;;;;;;5006918;28;20042;-71
2023/01/19 12:23:51;;;;;;;13.38;2.22;;;18.00;99.90;;;;;;5030624;28;20032;-71
2023/01/19 12:26:53;;;;;;;5.70;1.70;;;18.00;99.90;;;;;;4987583;28;20045;-69
2023/01/19 12:29:23;;;;;;;6.68;1.70;;;17.90;99.90;;;;;;4982128;28;20547;-71
2023/01/19 12:32:18;;;;;;;9.10;1.75;;;17.90;99.90;;;;;;5024276;28;20492;-72
2023/01/19 12:34:50;;;;;;;;;;;17.90;99.90;;;;;;5037947;28;20033;-70
2023/01/19 12:37:38;;;;;;;5.80;1.05;;;17.90;99.90;;;;;;5047596;28;19958;-71
2023/01/19 12:40:30;;;;;;;7.18;1.33;;;17.90;99.90;;;;;;5035762;28;20013;-69
2023/01/19 12:43:04;;;;;;;6.05;1.95;;;17.90;99.90;;;;;;5042955;28;20056;-71
2023/01/19 12:45:35;;;;;;;7.32;1.52;;;17.90;99.90;;;;;;5045790;28;20028;-71
2023/01/19 12:48:04;;;;;;;10.00;1.38;;;17.90;99.90;;;;;;5044581;28;20168;-70
2023/01/19 12:50:36;;;;;;;12.10;2.10;;;17.90;99.90;;;;;;5046492;28;20103;-71
2023/01/19 12:53:07;;;;;;;20.17;2.05;;;17.90;99.90;;;;;;5040973;28;20060;-70
2023/01/19 12:55:45;;;;;;;11.63;1.17;;;17.90;99.90;;;;;;5045904;28;20487;-70
2023/01/19 12:58:23;;;;;;;10.23;1.45;;;17.90;99.90;;;;;;5034062;28;20117;-70
2023/01/19 13:01:15;;;;;;;8.07;1.67;;;17.90;99.90;;;;;;5041804;28;20021;-71
2023/01/19 13:03:57;;;;;;;9.80;2.05;;;17.90;99.90;;;;;;5043783;28;20025;-71
2023/01/19 13:06:47;;;;;;;12.68;1.45;;;17.80;99.90;;;;;;5043733;28;20028;-71
2023/01/19 13:09:35;;;;;;;11.05;1.85;;;17.80;99.90;;;;;;5023600;28;20037;-72
2023/01/19 13:12:21;;;;;;;9.02;1.15;;;17.80;99.90;;;;;;5036365;28;20486;-72
2023/01/19 13:14:49;;;;;;;6.85;2.13;;;17.70;99.90;;;;;;5040861;28;20520;-70
2023/01/19 13:17:33;;;;;;;8.80;1.27;;;17.70;99.90;;;;;;5038976;28;20029;-69
2023/01/19 13:20:15;;;;;;;9.75;1.83;;;17.60;99.90;;;;;;5034139;28;20062;-70